Aeroporto :
LOGIN :

Iscrizione | Disclaimer

   EN    FR    IT 

 










Sommario :    VFR   VFR Marginale   IFR   IFR Intensivo   IFR Molto Intensivo
Visibilità : 
Base nubi : 
>= 8 km
>= 3000ft
5 / 8 km
1000 / 3000 ft
1500m / 5 km
500 / 1000 ft
800 / 1500m
200 / 500 ft
< 800m
< 200 ft
Simboli :   Temporali  Nebbia  Neve Forte  Precipitazioni Forti  Vento > 20 kt
SIGMETs :   Varie  Temporali  Ghiacco  Turbolenza  Onda orograficha  Ceneri Vulcaniche






- Altitudine del aeroporto : -11 ft
- Codice IATA : AMS


EHAM - Amsterdam Schiphol

ULTIMO METAR :
  • 280955Z 19012KT 170V230 9999 FEW028 05/03 Q1014 NOSIG

METARs OBSOLETI :
  • 280925Z 19011KT 9999 FEW025 05/02 Q1014 NOSIG
  • 280855Z 20008KT 9999 FEW023 04/02 Q1014 NOSIG
  • 280825Z 19008KT 9999 FEW023 04/02 Q1014 NOSIG
  • 280755Z 18007KT 9999 FEW023 04/02 Q1014 NOSIG
  • 280725Z 21008KT 9999 FEW023 03/01 Q1014 NOSIG

TAF COR TAF EHAM
Valido dal 28 a 06 ore il 29 a 12 ore UTC


280514Z 2806/2912 23007KT 9999 SCT025
BECMG 2812/2815 18013KT
BECMG 2815/2818 17018G28KT 6000 RADZ SCT007 BKN010
BECMG 2818/2821 SCT004 BKN007
TEMPO 2819/2904 3500 DZ
BECMG 2821/2824 21016G26KT 8000 NSW
BECMG 2903/2906 BKN025
BECMG 2909/2912 18018G28KT



MetMap, La meteo Aeronautica in un colpo d'occhio ! - Copyright ORBIFLY Dicembre 2007 - Disclaimer

ORBIFLY MET'MAP TEAM :

Programmazione e sviluppo : Alexandra Zaïnal
Concezione : Baudouin d'Aumeries
Aiuto per la programmazione : Marc-Olivier Méhu
Supporto tecnico e logistico : Manuel Goepfert
Aiuto per la traduzione : Arnaldo La Scala

Contatto : metmap@orbifly.com




FONTI E CREDITI :

   NOAA